Terminal Aerodrome Forecast
Issued by NWS

Current Version | Previous Version | Text Only | Print | Product List | Glossary On
Versions: 1 2 3 4 5 6 7 8 9 10 11 12 13 14 15 16 17 18 19 20 21 22 23 24 25 26 27 28 29 30 31 32 33 34 35 36 37 38 39 40 41 42 43
000
FTUS45 KBOU 261540 AAA
TAFBJC
TAF AMD
KBJC 261540Z 2616/2712 02005KT 3SM -SN BR SCT010 OVC020
      TEMPO 2616/2618 1SM -SN BR OVC010
     FM262000 03007KT 5SM -SN BR SCT015 OVC025
      TEMPO 2620/2623 3SM -SN BR OVC015
     FM270100 02006KT P6SM VCSH SCT015 BKN030 OVC060
     FM270600 24006KT P6SM SCT025 BKN040 BKN080=

USA.gov is the U.S. government's official web portal to all federal, state and local government web resources and services.